createdAt,value
2022-07-29T00:01:45.648Z,48.24
2022-07-29T00:04:12.759Z,48.65
2022-07-29T00:06:39.703Z,47.85
2022-07-29T00:09:06.359Z,48.46
2022-07-29T00:11:32.939Z,48.22
2022-07-29T00:13:59.665Z,49.39
2022-07-29T00:16:26.203Z,48.16
2022-07-29T00:18:52.837Z,48.29
2022-07-29T00:21:19.386Z,49.04
2022-07-29T00:23:45.932Z,49.16
2022-07-29T00:26:12.473Z,49.79
2022-07-29T00:28:39.071Z,51.12
2022-07-29T00:31:05.711Z,50.33
2022-07-29T00:33:32.398Z,50.03
2022-07-29T00:35:58.936Z,50.00
2022-07-29T00:38:25.621Z,50.44
2022-07-29T00:40:52.199Z,51.52
2022-07-29T00:43:18.894Z,50.91
2022-07-29T00:45:45.777Z,50.08
2022-07-29T00:48:12.400Z,50.23
2022-07-29T00:50:38.992Z,50.09
2022-07-29T00:53:07.122Z,49.98
2022-07-29T00:55:33.945Z,50.41
2022-07-29T00:58:00.784Z,50.21
2022-07-29T01:00:29.054Z,51.62
2022-07-29T01:02:55.797Z,52.87
2022-07-29T01:05:24.213Z,52.59
2022-07-29T01:07:53.291Z,51.73
2022-07-29T01:10:20.711Z,51.48
2022-07-29T01:12:48.980Z,51.69
2022-07-29T01:15:15.885Z,52.00
2022-07-29T01:18:14.736Z,51.94
2022-07-29T01:21:03.612Z,52.31
2022-07-29T01:23:48.625Z,51.88
2022-07-29T01:26:20.294Z,51.55
2022-07-29T01:28:47.234Z,51.70
2022-07-29T01:31:17.813Z,52.40
2022-07-29T01:33:56.214Z,53.05
2022-07-29T01:36:22.788Z,53.79
2022-07-29T01:38:54.998Z,53.88
2022-07-29T01:41:22.318Z,53.89
2022-07-29T01:44:00.520Z,52.45
2022-07-29T01:46:38.293Z,53.37
2022-07-29T01:49:08.241Z,52.28
2022-07-29T01:51:41.112Z,53.26
2022-07-29T01:54:17.920Z,53.25
2022-07-29T01:56:46.274Z,53.07
2022-07-29T01:59:13.396Z,53.07
2022-07-29T02:01:42.050Z,53.08
2022-07-29T02:04:10.931Z,52.55
2022-07-29T02:06:39.422Z,52.37
2022-07-29T02:09:08.548Z,51.47
2022-07-29T02:11:36.578Z,51.90
2022-07-29T02:14:04.920Z,52.61
2022-07-29T02:16:33.307Z,52.87
2022-07-29T02:19:01.873Z,52.44
2022-07-29T02:21:29.190Z,54.50
2022-07-29T02:23:57.028Z,54.23
2022-07-29T02:26:25.439Z,53.14
2022-07-29T02:28:53.496Z,53.52
2022-07-29T02:31:22.754Z,53.60
2022-07-29T02:33:50.030Z,53.54
2022-07-29T02:36:17.105Z,53.53
2022-07-29T02:38:53.717Z,53.02
2022-07-29T02:41:49.710Z,52.49
2022-07-29T02:44:17.896Z,53.56
2022-07-29T02:46:50.734Z,53.58
2022-07-29T02:49:26.514Z,53.44
2022-07-29T02:51:59.054Z,53.10
2022-07-29T02:54:31.404Z,53.73
2022-07-29T02:56:59.816Z,54.54
2022-07-29T02:59:28.655Z,55.37
2022-07-29T03:01:56.458Z,55.51
2022-07-29T03:04:25.227Z,54.61
2022-07-29T03:06:53.434Z,54.35
2022-07-29T03:09:20.623Z,53.42
2022-07-29T03:11:50.541Z,53.24
2022-07-29T03:14:18.718Z,52.20
2022-07-29T03:16:46.043Z,52.38
2022-07-29T03:19:12.876Z,52.77
2022-07-29T03:21:39.855Z,53.38
2022-07-29T03:24:12.511Z,52.52
2022-07-29T03:26:39.275Z,52.01
2022-07-29T03:29:05.910Z,52.58
2022-07-29T03:31:33.732Z,53.51
2022-07-29T03:34:00.873Z,54.56
2022-07-29T03:36:27.514Z,55.32
2022-07-29T03:38:54.326Z,54.52
2022-07-29T03:41:22.980Z,54.08
2022-07-29T03:43:50.811Z,52.48
2022-07-29T03:46:17.733Z,53.24
2022-07-29T03:48:47.533Z,53.37
2022-07-29T03:51:14.430Z,53.56
2022-07-29T03:53:41.093Z,53.20
2022-07-29T03:56:08.292Z,53.74
2022-07-29T03:58:35.572Z,53.23
2022-07-29T04:01:02.210Z,53.81
2022-07-29T04:03:28.826Z,52.62
2022-07-29T04:05:59.767Z,53.89
2022-07-29T04:08:26.621Z,52.99
2022-07-29T04:10:53.513Z,52.01
2022-07-29T04:13:20.935Z,52.52
2022-07-29T04:15:47.536Z,52.98
2022-07-29T04:18:14.135Z,52.58
2022-07-29T04:20:40.647Z,52.25
2022-07-29T04:23:07.272Z,51.96
2022-07-29T04:25:34.049Z,52.37
2022-07-29T04:28:04.011Z,53.03
2022-07-29T04:30:31.573Z,53.65
2022-07-29T04:32:58.218Z,53.25
2022-07-29T04:35:24.910Z,52.19
2022-07-29T04:37:51.583Z,53.32
2022-07-29T04:40:18.346Z,52.63
2022-07-29T04:42:47.294Z,53.78
2022-07-29T04:45:14.835Z,53.43
2022-07-29T04:47:42.632Z,52.22
2022-07-29T04:50:09.701Z,52.75
2022-07-29T04:52:36.413Z,52.67
2022-07-29T04:55:04.331Z,52.25
2022-07-29T04:57:30.896Z,52.01
2022-07-29T04:59:57.548Z,52.21
2022-07-29T05:02:24.256Z,52.47
2022-07-29T05:04:50.951Z,51.98
2022-07-29T05:07:17.934Z,51.72
2022-07-29T05:09:44.519Z,51.51
2022-07-29T05:12:11.128Z,51.51
2022-07-29T05:14:37.777Z,52.00
2022-07-29T05:17:04.329Z,52.21
2022-07-29T05:19:30.924Z,52.29
2022-07-29T05:21:57.571Z,52.37
2022-07-29T05:24:24.193Z,52.17
2022-07-29T05:26:50.954Z,52.04
2022-07-29T05:29:44.754Z,51.29
2022-07-29T05:32:05.040Z,51.86
2022-07-29T05:34:32.196Z,52.58
2022-07-29T05:36:59.028Z,52.09
2022-07-29T05:39:47.474Z,52.20
2022-07-29T05:42:12.208Z,51.90
2022-07-29T05:44:39.156Z,51.91
2022-07-29T05:47:06.191Z,51.83
2022-07-29T05:49:32.965Z,51.62
2022-07-29T05:51:59.754Z,52.11
2022-07-29T05:54:26.735Z,50.53
2022-07-29T05:56:53.417Z,50.73
2022-07-29T05:59:19.952Z,51.34
2022-07-29T06:01:46.673Z,51.03
2022-07-29T06:04:13.791Z,51.50
2022-07-29T06:06:40.664Z,51.57
2022-07-29T06:09:12.084Z,51.01
2022-07-29T06:11:39.682Z,51.86
2022-07-29T06:14:06.201Z,51.62
2022-07-29T06:16:32.893Z,50.77
2022-07-29T06:18:59.817Z,51.17
2022-07-29T06:21:26.570Z,50.70
2022-07-29T06:23:53.126Z,50.49
2022-07-29T06:26:19.742Z,50.15
2022-07-29T06:28:57.560Z,49.73
2022-07-29T06:31:24.198Z,49.89
2022-07-29T06:33:51.086Z,50.06
2022-07-29T06:36:17.772Z,49.45
2022-07-29T06:38:50.443Z,49.36
2022-07-29T06:41:18.227Z,50.00
2022-07-29T06:43:52.166Z,50.00
2022-07-29T06:46:21.977Z,50.18
2022-07-29T06:48:48.893Z,49.25
2022-07-29T06:51:16.274Z,49.96
2022-07-29T06:54:00.423Z,49.71
2022-07-29T06:56:30.111Z,48.96
2022-07-29T06:58:56.773Z,49.53
2022-07-29T07:01:23.394Z,48.69
2022-07-29T07:03:53.215Z,49.33
2022-07-29T07:06:19.818Z,49.38
2022-07-29T07:08:46.468Z,49.62
2022-07-29T07:11:13.174Z,48.68
2022-07-29T07:13:42.139Z,49.42
2022-07-29T07:16:08.698Z,48.54
2022-07-29T07:18:35.300Z,48.30
2022-07-29T07:21:02.006Z,48.76
2022-07-29T07:23:28.520Z,47.96
2022-07-29T07:25:55.137Z,47.39
2022-07-29T07:28:25.053Z,47.87
2022-07-29T07:30:52.344Z,47.00
2022-07-29T07:33:19.077Z,47.52
2022-07-29T07:35:46.441Z,47.82
2022-07-29T07:38:13.421Z,48.32
2022-07-29T07:40:40.095Z,47.70
2022-07-29T07:43:06.987Z,47.53
2022-07-29T07:45:34.077Z,48.10
2022-07-29T07:48:00.839Z,47.45
2022-07-29T07:50:27.718Z,47.58
2022-07-29T07:52:58.527Z,48.16
2022-07-29T07:55:25.571Z,46.90
2022-07-29T07:57:52.153Z,46.60
2022-07-29T08:00:18.751Z,46.38
2022-07-29T08:02:46.216Z,45.91
2022-07-29T08:05:17.666Z,45.33
2022-07-29T08:07:47.783Z,45.64
2022-07-29T08:10:37.107Z,45.28
2022-07-29T08:13:04.978Z,45.75
2022-07-29T08:15:31.493Z,44.75
2022-07-29T08:17:58.212Z,44.96
2022-07-29T08:20:25.153Z,45.31
2022-07-29T08:22:52.151Z,44.73
2022-07-29T08:25:21.321Z,44.25
2022-07-29T08:27:48.761Z,43.64
2022-07-29T08:30:16.444Z,43.60
2022-07-29T08:32:53.592Z,43.31
2022-07-29T08:35:21.922Z,43.28
2022-07-29T08:37:48.745Z,43.00
2022-07-29T08:40:15.519Z,41.67
2022-07-29T08:42:42.139Z,41.08
2022-07-29T08:45:09.228Z,40.30
2022-07-29T08:47:40.447Z,39.76
2022-07-29T08:50:08.448Z,39.31
2022-07-29T08:52:37.112Z,38.44
2022-07-29T08:55:04.935Z,39.35
2022-07-29T08:57:31.890Z,38.98
2022-07-29T09:00:06.239Z,38.75
2022-07-29T09:02:41.302Z,38.66
2022-07-29T09:05:08.395Z,38.92
2022-07-29T09:07:36.548Z,39.32
2022-07-29T09:10:04.905Z,38.47
2022-07-29T09:12:37.853Z,38.48
2022-07-29T09:15:05.053Z,38.61
2022-07-29T09:17:50.820Z,37.87
2022-07-29T09:20:18.979Z,37.62
2022-07-29T09:22:50.127Z,37.66
2022-07-29T09:25:35.721Z,37.48
2022-07-29T09:28:09.945Z,37.74
2022-07-29T09:30:36.787Z,36.89
2022-07-29T09:33:04.027Z,36.12
2022-07-29T09:35:31.551Z,38.00
2022-07-29T09:37:58.320Z,36.02
2022-07-29T09:40:26.684Z,35.70
2022-07-29T09:42:57.927Z,36.11
2022-07-29T09:45:33.281Z,35.92
2022-07-29T09:48:01.521Z,35.44
2022-07-29T09:50:38.597Z,35.64
2022-07-29T09:53:05.292Z,34.09
2022-07-29T09:55:31.831Z,34.32
2022-07-29T09:58:17.630Z,33.22
2022-07-29T10:00:47.021Z,33.21
2022-07-29T10:03:14.325Z,34.26
2022-07-29T10:05:50.507Z,32.72
2022-07-29T10:08:25.635Z,31.51
2022-07-29T10:10:52.280Z,31.83
2022-07-29T10:13:18.949Z,31.48
2022-07-29T10:15:46.849Z,32.83
2022-07-29T10:18:14.392Z,32.19
2022-07-29T10:20:41.374Z,32.37
2022-07-29T10:23:08.002Z,31.28
2022-07-29T10:25:34.615Z,31.47
2022-07-29T10:28:01.181Z,30.19
2022-07-29T10:30:27.842Z,29.68
2022-07-29T10:33:13.228Z,29.92
2022-07-29T10:35:49.371Z,29.52
2022-07-29T10:38:27.275Z,29.22
2022-07-29T10:41:23.599Z,29.91
2022-07-29T10:43:52.615Z,29.24
2022-07-29T10:46:21.531Z,28.55
2022-07-29T10:49:10.077Z,29.18
2022-07-29T10:51:58.239Z,28.13
2022-07-29T10:54:34.997Z,28.42
2022-07-29T10:57:14.982Z,26.48
2022-07-29T10:59:44.593Z,26.18
2022-07-29T11:02:41.975Z,25.91
2022-07-29T11:08:20.297Z,25.77
2022-07-29T11:10:52.388Z,27.08
2022-07-29T11:13:56.927Z,26.59
2022-07-29T11:16:25.210Z,26.86
2022-07-29T11:19:10.826Z,26.85
2022-07-29T11:24:33.357Z,28.63
2022-07-29T11:27:13.886Z,29.18
2022-07-29T11:29:56.643Z,28.42
2022-07-29T11:32:24.976Z,27.80
2022-07-29T11:35:17.483Z,27.28
2022-07-29T11:37:55.897Z,27.13
2022-07-29T11:40:24.597Z,26.81
2022-07-29T11:42:52.420Z,26.95
2022-07-29T11:45:42.131Z,27.41
2022-07-29T11:48:31.323Z,27.08
2022-07-29T11:50:54.977Z,26.78
2022-07-29T11:53:21.834Z,27.50
2022-07-29T11:55:57.479Z,27.14
2022-07-29T11:58:26.018Z,26.95
2022-07-29T12:00:55.687Z,27.99
2022-07-29T12:03:35.138Z,27.20
2022-07-29T12:06:02.429Z,27.18
2022-07-29T12:08:29.101Z,26.97
2022-07-29T12:10:55.833Z,26.91
2022-07-29T12:13:22.769Z,27.14
2022-07-29T12:16:04.075Z,26.92
2022-07-29T12:18:33.225Z,27.44
2022-07-29T12:21:03.942Z,27.15
2022-07-29T12:23:35.126Z,27.46
2022-07-29T12:26:07.204Z,27.23
2022-07-29T12:28:40.103Z,27.47
2022-07-29T12:31:08.261Z,27.11
2022-07-29T12:33:35.993Z,26.66
2022-07-29T12:36:07.505Z,26.93
2022-07-29T12:38:37.767Z,26.61
2022-07-29T12:41:04.936Z,26.52
2022-07-29T12:43:31.872Z,27.48
2022-07-29T12:45:58.541Z,26.70
2022-07-29T12:48:36.299Z,27.47
2022-07-29T12:51:04.049Z,27.35
2022-07-29T12:53:31.089Z,27.35
2022-07-29T12:55:58.208Z,26.77
2022-07-29T12:58:30.895Z,26.83
2022-07-29T13:01:06.831Z,27.59
2022-07-29T13:03:57.123Z,27.22
2022-07-29T13:06:41.634Z,26.95
2022-07-29T13:09:14.423Z,26.65
2022-07-29T13:11:48.616Z,26.68
2022-07-29T13:14:31.571Z,26.77
2022-07-29T13:17:14.497Z,26.71
2022-07-29T13:19:42.743Z,26.14
2022-07-29T13:22:10.301Z,26.29
2022-07-29T13:24:47.087Z,26.20
2022-07-29T13:27:18.192Z,26.55
2022-07-29T13:29:45.027Z,25.81
2022-07-29T13:32:12.892Z,26.29
2022-07-29T13:34:39.530Z,26.02
2022-07-29T13:37:07.925Z,26.30
2022-07-29T13:39:34.769Z,26.29
2022-07-29T13:42:02.110Z,26.80
2022-07-29T13:44:28.742Z,25.65
2022-07-29T13:46:55.389Z,26.17
2022-07-29T13:49:22.323Z,25.67
2022-07-29T13:51:50.008Z,26.24
2022-07-29T13:54:16.780Z,26.66
2022-07-29T13:56:46.300Z,26.79
2022-07-29T13:59:13.164Z,25.88
2022-07-29T14:01:42.593Z,25.82
2022-07-29T14:04:09.990Z,25.46
2022-07-29T14:06:45.006Z,26.58
2022-07-29T14:09:12.137Z,26.49
2022-07-29T14:11:39.471Z,25.93
2022-07-29T14:14:06.182Z,26.44
2022-07-29T14:16:32.762Z,25.65
2022-07-29T14:19:00.477Z,26.52
2022-07-29T14:21:27.068Z,27.26
2022-07-29T14:23:55.553Z,25.76
2022-07-29T14:26:24.200Z,25.86
2022-07-29T14:28:53.677Z,26.06
2022-07-29T14:31:20.233Z,26.21
2022-07-29T14:33:49.268Z,25.88
2022-07-29T14:36:16.364Z,25.57
2022-07-29T14:38:43.010Z,25.69
2022-07-29T14:41:09.632Z,25.52
2022-07-29T14:43:36.241Z,25.90
2022-07-29T14:46:08.178Z,25.61
2022-07-29T14:48:35.208Z,25.83
2022-07-29T14:51:04.693Z,25.68
2022-07-29T14:53:31.824Z,25.62
2022-07-29T14:56:06.221Z,28.05
2022-07-29T14:58:51.636Z,26.98
2022-07-29T15:01:18.736Z,26.71
2022-07-29T15:03:45.379Z,26.37
2022-07-29T15:06:12.318Z,25.99
2022-07-29T15:08:41.428Z,26.75
2022-07-29T15:11:08.054Z,26.65
2022-07-29T15:13:35.010Z,26.36
2022-07-29T15:16:03.434Z,26.13
2022-07-29T15:18:30.010Z,26.72
2022-07-29T15:20:56.573Z,26.71
2022-07-29T15:23:23.370Z,26.88
2022-07-29T15:25:49.955Z,26.73
2022-07-29T15:28:16.502Z,27.86
2022-07-29T15:30:43.167Z,27.71
2022-07-29T15:33:10.491Z,27.33
2022-07-29T15:35:39.944Z,27.44
2022-07-29T15:38:07.517Z,27.46
2022-07-29T15:40:34.328Z,28.24
2022-07-29T15:43:06.732Z,28.63
2022-07-29T15:45:40.426Z,28.02
2022-07-29T15:48:08.121Z,28.18
2022-07-29T15:50:34.989Z,27.57
2022-07-29T15:53:02.152Z,27.81
2022-07-29T15:55:28.715Z,27.75
2022-07-29T15:58:00.330Z,27.24
2022-07-29T16:00:27.327Z,27.61
2022-07-29T16:02:53.865Z,27.66
2022-07-29T16:05:20.494Z,27.59
2022-07-29T16:07:47.107Z,27.72
2022-07-29T16:10:13.781Z,28.10
2022-07-29T16:12:40.349Z,27.89
2022-07-29T16:15:10.491Z,27.62
2022-07-29T16:17:37.943Z,27.92
2022-07-29T16:20:05.869Z,27.73
2022-07-29T16:22:32.568Z,29.05
2022-07-29T16:25:00.849Z,27.56
2022-07-29T16:27:35.335Z,26.87
2022-07-29T16:30:05.325Z,27.38
2022-07-29T16:32:31.904Z,26.72
2022-07-29T16:34:58.682Z,26.48
2022-07-29T16:37:25.318Z,26.71
2022-07-29T16:39:56.592Z,26.83
2022-07-29T16:42:44.317Z,26.42
2022-07-29T16:45:10.034Z,26.44
2022-07-29T16:47:37.189Z,26.76
2022-07-29T16:50:04.836Z,26.86
2022-07-29T16:52:31.465Z,26.60
2022-07-29T16:54:58.084Z,27.09
2022-07-29T16:57:24.620Z,26.73
2022-07-29T16:59:51.603Z,27.26
2022-07-29T17:02:18.287Z,27.34
2022-07-29T17:04:44.927Z,27.04
2022-07-29T17:07:11.828Z,27.64
2022-07-29T17:09:38.571Z,27.44
2022-07-29T17:12:05.342Z,26.85
2022-07-29T17:14:32.188Z,26.67
2022-07-29T17:17:03.279Z,26.96
2022-07-29T17:19:31.614Z,28.15
2022-07-29T17:22:06.400Z,28.02
2022-07-29T17:24:35.830Z,27.61
2022-07-29T17:27:02.458Z,27.17
2022-07-29T17:29:29.033Z,26.61
2022-07-29T17:31:55.608Z,26.91
2022-07-29T17:34:22.280Z,27.47
2022-07-29T17:36:48.963Z,27.22
2022-07-29T17:39:15.544Z,28.01
2022-07-29T17:41:42.409Z,27.44
2022-07-29T17:44:09.516Z,27.31
2022-07-29T17:46:36.276Z,27.89
2022-07-29T17:49:03.329Z,28.28
2022-07-29T17:51:30.315Z,27.58
2022-07-29T17:53:58.240Z,28.05
2022-07-29T17:56:25.101Z,27.28
2022-07-29T17:58:51.674Z,27.44
2022-07-29T18:01:18.299Z,27.32
2022-07-29T18:03:45.502Z,27.29
2022-07-29T18:06:12.120Z,27.04
2022-07-29T18:08:39.408Z,27.40
2022-07-29T18:11:06.441Z,27.99
2022-07-29T18:13:33.340Z,28.09
2022-07-29T18:16:00.695Z,28.39
2022-07-29T18:18:27.677Z,28.59
2022-07-29T18:20:54.335Z,29.46
2022-07-29T18:23:21.304Z,29.41
2022-07-29T18:25:47.972Z,30.29
2022-07-29T18:28:14.701Z,30.67
2022-07-29T18:30:41.595Z,30.71
2022-07-29T18:33:22.881Z,30.63
2022-07-29T18:35:50.557Z,32.00
2022-07-29T18:38:17.757Z,31.01
2022-07-29T18:40:45.743Z,32.02
2022-07-29T18:43:12.776Z,32.09
2022-07-29T18:45:39.745Z,32.83
2022-07-29T18:48:08.412Z,32.08
2022-07-29T18:50:39.733Z,32.12
2022-07-29T18:53:06.292Z,32.87
2022-07-29T18:55:32.927Z,33.17
2022-07-29T18:57:59.598Z,33.91
2022-07-29T19:00:26.947Z,33.54
2022-07-29T19:02:53.689Z,34.32
2022-07-29T19:05:20.689Z,34.00
2022-07-29T19:07:47.226Z,34.41
2022-07-29T19:10:14.069Z,33.89
2022-07-29T19:13:00.628Z,34.55
2022-07-29T19:15:27.372Z,34.53
2022-07-29T19:17:56.645Z,34.15
2022-07-29T19:20:27.311Z,34.90
2022-07-29T19:22:56.213Z,35.44
2022-07-29T19:25:23.296Z,36.21
2022-07-29T19:27:50.034Z,36.18
2022-07-29T19:30:16.661Z,35.62
2022-07-29T19:32:43.249Z,36.66
2022-07-29T19:35:25.361Z,36.19
2022-07-29T19:37:52.586Z,36.11
2022-07-29T19:40:19.152Z,36.66
2022-07-29T19:42:46.164Z,36.63
2022-07-29T19:45:12.806Z,36.79
2022-07-29T19:47:39.448Z,36.82
2022-07-29T19:50:06.802Z,36.08
2022-07-29T19:52:33.551Z,37.13
2022-07-29T19:55:05.285Z,36.80
2022-07-29T19:57:35.993Z,37.18
2022-07-29T20:00:08.108Z,36.40
2022-07-29T20:02:38.146Z,36.68
2022-07-29T20:05:04.966Z,37.52
2022-07-29T20:07:31.584Z,37.47
2022-07-29T20:09:58.221Z,37.81
2022-07-29T20:12:25.182Z,37.55
2022-07-29T20:14:51.893Z,38.20
2022-07-29T20:17:22.488Z,38.21
2022-07-29T20:19:49.779Z,38.80
2022-07-29T20:22:21.036Z,38.52
2022-07-29T20:24:48.254Z,38.34
2022-07-29T20:27:14.835Z,38.70
2022-07-29T20:29:41.837Z,38.69
2022-07-29T20:32:10.869Z,39.45
2022-07-29T20:34:37.484Z,40.21
2022-07-29T20:37:04.092Z,40.00
2022-07-29T20:39:30.762Z,39.55
2022-07-29T20:41:57.875Z,39.95
2022-07-29T20:44:24.660Z,40.65
2022-07-29T20:46:51.418Z,40.48
2022-07-29T20:49:18.156Z,40.34
2022-07-29T20:51:44.751Z,40.12
2022-07-29T20:54:11.895Z,40.28
2022-07-29T20:56:38.719Z,40.08
2022-07-29T20:59:05.323Z,40.16
2022-07-29T21:01:31.963Z,40.54
2022-07-29T21:03:58.718Z,40.90
2022-07-29T21:06:25.603Z,41.05
2022-07-29T21:08:52.353Z,39.97
2022-07-29T21:11:43.321Z,41.04
2022-07-29T21:14:06.485Z,40.06
2022-07-29T21:16:33.865Z,39.95
2022-07-29T21:19:02.021Z,40.44
2022-07-29T21:21:28.588Z,40.35
2022-07-29T21:23:55.175Z,39.91
2022-07-29T21:26:21.765Z,40.75
2022-07-29T21:28:50.596Z,40.71
2022-07-29T21:31:17.401Z,40.05
2022-07-29T21:33:45.973Z,40.41
2022-07-29T21:36:46.492Z,40.34
2022-07-29T21:39:00.777Z,40.30
2022-07-29T21:41:27.381Z,41.30
2022-07-29T21:43:54.694Z,40.88
2022-07-29T21:46:24.990Z,41.10
2022-07-29T21:48:51.865Z,41.22
2022-07-29T21:51:18.532Z,41.96
2022-07-29T21:53:45.163Z,41.13
2022-07-29T21:56:14.902Z,41.29
2022-07-29T21:58:43.232Z,41.04
2022-07-29T22:01:10.150Z,40.71
2022-07-29T22:03:36.818Z,40.76
2022-07-29T22:06:03.490Z,40.20
2022-07-29T22:08:30.115Z,40.93
2022-07-29T22:10:56.726Z,40.39
2022-07-29T22:13:23.306Z,39.86
2022-07-29T22:15:49.902Z,39.82
2022-07-29T22:18:20.818Z,40.09
2022-07-29T22:20:48.509Z,40.11
2022-07-29T22:23:16.547Z,39.51
2022-07-29T22:25:43.196Z,39.38
2022-07-29T22:28:09.754Z,39.93
2022-07-29T22:30:36.400Z,40.12
2022-07-29T22:33:03.011Z,39.92
2022-07-29T22:35:29.602Z,39.55
2022-07-29T22:37:56.174Z,40.20
2022-07-29T22:40:22.827Z,40.00
2022-07-29T22:42:57.583Z,39.39
2022-07-29T22:45:24.252Z,39.60
2022-07-29T22:47:55.938Z,39.34
2022-07-29T22:50:24.676Z,39.88
2022-07-29T22:52:51.346Z,39.30
2022-07-29T22:55:17.994Z,40.51
2022-07-29T22:57:44.760Z,40.16
2022-07-29T23:00:11.815Z,39.44
2022-07-29T23:02:38.403Z,40.37
2022-07-29T23:05:05.180Z,40.38
2022-07-29T23:07:33.204Z,40.33
2022-07-29T23:09:59.836Z,40.20
2022-07-29T23:12:26.398Z,39.93
2022-07-29T23:14:53.049Z,39.99
2022-07-29T23:17:19.646Z,40.49
2022-07-29T23:19:46.426Z,40.78
2022-07-29T23:22:13.018Z,40.53
2022-07-29T23:24:39.662Z,40.35
2022-07-29T23:27:07.563Z,40.56
2022-07-29T23:29:36.791Z,40.32
2022-07-29T23:32:05.534Z,40.45
2022-07-29T23:34:32.229Z,40.43
2022-07-29T23:36:59.206Z,40.61
2022-07-29T23:39:25.990Z,39.96
2022-07-29T23:41:52.604Z,38.89
2022-07-29T23:44:19.157Z,40.00
2022-07-29T23:46:45.841Z,40.17
2022-07-29T23:49:13.681Z,39.31
2022-07-29T23:51:40.364Z,39.89
2022-07-29T23:54:06.901Z,39.86
2022-07-29T23:56:33.645Z,39.89
2022-07-29T23:59:00.239Z,39.70
